createdAt,value
2018-05-26T00:01:45.867Z,6.73
2018-05-26T00:04:14.548Z,7.43
2018-05-26T00:06:43.226Z,6.60
2018-05-26T00:09:11.939Z,6.15
2018-05-26T00:11:41.031Z,7.03
2018-05-26T00:14:09.664Z,7.13
2018-05-26T00:16:38.331Z,8.10
2018-05-26T00:19:06.966Z,7.43
2018-05-26T00:21:35.610Z,6.97
2018-05-26T00:24:04.575Z,7.43
2018-05-26T00:26:33.219Z,6.87
2018-05-26T00:29:02.825Z,6.47
2018-05-26T00:31:32.495Z,5.87
2018-05-26T00:34:01.172Z,8.73
2018-05-26T00:36:29.825Z,7.97
2018-05-26T00:38:59.420Z,9.60
2018-05-26T00:41:28.074Z,8.27
2018-05-26T00:43:56.742Z,8.20
2018-05-26T00:46:25.516Z,8.40
2018-05-26T00:48:54.183Z,9.07
2018-05-26T00:51:22.899Z,9.17
2018-05-26T00:53:51.510Z,7.67
2018-05-26T00:56:20.167Z,9.67
2018-05-26T00:58:49.155Z,8.47
2018-05-26T01:01:17.888Z,7.07
2018-05-26T01:03:46.868Z,8.70
2018-05-26T01:06:16.705Z,7.83
2018-05-26T01:08:45.353Z,6.67
2018-05-26T01:11:14.014Z,8.60
2018-05-26T01:13:43.877Z,8.93
2018-05-26T01:16:13.997Z,8.77
2018-05-26T01:18:42.669Z,8.03
2018-05-26T01:21:11.379Z,7.87
2018-05-26T01:23:40.039Z,8.00
2018-05-26T01:26:08.663Z,9.57
2018-05-26T01:28:38.268Z,8.13
2018-05-26T01:31:09.307Z,8.70
2018-05-26T01:33:39.285Z,11.30
2018-05-26T01:36:07.932Z,9.90
2018-05-26T01:38:36.620Z,7.60
2018-05-26T01:41:05.259Z,10.27
2018-05-26T01:43:33.949Z,8.00
2018-05-26T01:46:02.868Z,7.90
2018-05-26T01:48:31.556Z,11.30
2018-05-26T01:51:00.319Z,8.87
2018-05-26T01:53:28.981Z,8.27
2018-05-26T01:55:57.644Z,10.90
2018-05-26T01:58:26.315Z,8.00
2018-05-26T02:00:56.727Z,8.40
2018-05-26T02:03:25.396Z,11.10
2018-05-26T02:05:54.119Z,10.13
2018-05-26T02:08:22.817Z,8.87
2018-05-26T02:10:51.928Z,8.20
2018-05-26T02:13:24.831Z,9.47
2018-05-26T02:15:55.428Z,8.90
2018-05-26T02:18:26.495Z,10.37
2018-05-26T02:20:55.421Z,11.10
2018-05-26T02:23:24.171Z,13.17
2018-05-26T02:26:02.347Z,7.77
2018-05-26T02:28:31.054Z,8.70
2018-05-26T02:30:59.666Z,7.63
2018-05-26T02:33:32.881Z,8.50
2018-05-26T02:36:01.569Z,8.23
2018-05-26T02:38:33.145Z,8.23
2018-05-26T02:41:02.098Z,8.97
2018-05-26T02:43:30.745Z,8.90
2018-05-26T02:45:59.398Z,8.67
2018-05-26T02:48:28.264Z,8.40
2018-05-26T02:50:56.884Z,9.13
2018-05-26T02:53:25.586Z,9.07
2018-05-26T02:55:54.202Z,8.40
2018-05-26T02:58:22.862Z,10.00
2018-05-26T03:00:51.539Z,9.07
2018-05-26T03:03:20.186Z,9.00
2018-05-26T03:06:06.884Z,8.80
2018-05-26T03:08:53.875Z,9.57
2018-05-26T03:11:43.100Z,7.40
2018-05-26T03:14:29.857Z,7.20
2018-05-26T03:16:58.518Z,7.43
2018-05-26T03:19:28.130Z,9.33
2018-05-26T03:21:56.754Z,7.90
2018-05-26T03:24:25.517Z,9.50
2018-05-26T03:26:54.119Z,8.67
2018-05-26T03:29:22.820Z,9.30
2018-05-26T03:31:51.476Z,11.67
2018-05-26T03:34:20.552Z,8.67
2018-05-26T03:36:49.173Z,9.97
2018-05-26T03:39:17.826Z,8.57
2018-05-26T03:41:46.589Z,7.40
2018-05-26T03:44:15.299Z,8.93
2018-05-26T03:46:45.899Z,8.60
2018-05-26T03:49:14.597Z,8.20
2018-05-26T03:51:43.256Z,11.37
2018-05-26T03:54:11.928Z,7.20
2018-05-26T03:57:17.759Z,8.00
2018-05-26T04:00:11.259Z,7.57
2018-05-26T04:02:41.732Z,8.77
2018-05-26T04:05:10.391Z,8.63
2018-05-26T04:10:26.655Z,8.90
2018-05-26T04:12:57.347Z,11.82
2018-05-26T04:15:38.600Z,8.80
2018-05-26T04:18:07.205Z,12.97
2018-05-26T04:20:35.874Z,11.00
2018-05-26T04:23:12.920Z,12.70
2018-05-26T04:25:41.599Z,9.83
2018-05-26T04:28:10.413Z,11.03
2018-05-26T04:30:40.041Z,11.27
2018-05-26T04:35:56.276Z,10.27
2018-05-26T04:38:24.940Z,10.20
2018-05-26T04:40:55.159Z,9.37
2018-05-26T04:43:23.813Z,13.47
2018-05-26T04:45:52.474Z,9.77
2018-05-26T04:48:21.100Z,10.10
2018-05-26T04:50:50.748Z,10.27
2018-05-26T04:53:19.765Z,13.17
2018-05-26T04:55:49.432Z,9.60
2018-05-26T04:58:19.837Z,10.83
2018-05-26T05:00:48.847Z,10.30
2018-05-26T05:03:20.538Z,12.20
2018-05-26T05:05:49.542Z,12.43
2018-05-26T05:08:18.489Z,10.60
2018-05-26T05:10:47.737Z,10.33
2018-05-26T05:13:16.355Z,10.03
2018-05-26T05:15:45.861Z,14.32
2018-05-26T05:18:14.547Z,11.97
2018-05-26T05:20:43.240Z,11.57
2018-05-26T05:23:11.902Z,10.37
2018-05-26T05:25:43.030Z,13.70
2018-05-26T05:28:11.729Z,10.33
2018-05-26T05:30:40.381Z,14.85
2018-05-26T05:33:09.059Z,12.77
2018-05-26T05:35:37.701Z,12.47
2018-05-26T05:38:06.360Z,13.97
2018-05-26T05:40:35.274Z,10.98
2018-05-26T05:43:03.953Z,14.50
2018-05-26T05:45:32.595Z,13.98
2018-05-26T05:48:01.341Z,13.27
2018-05-26T05:50:29.974Z,13.55
2018-05-26T05:52:58.650Z,14.63
2018-05-26T05:55:27.342Z,14.57
2018-05-26T05:57:56.030Z,14.45
2018-05-26T06:00:24.721Z,14.48
2018-05-26T06:02:53.456Z,14.93
2018-05-26T06:05:22.436Z,14.95
2018-05-26T06:07:51.097Z,14.82
2018-05-26T06:10:19.749Z,15.05
2018-05-26T06:12:49.577Z,16.83
2018-05-26T06:15:18.252Z,15.55
2018-05-26T06:17:47.183Z,14.90
2018-05-26T06:20:15.824Z,17.35
2018-05-26T06:22:44.618Z,14.82
2018-05-26T06:25:13.301Z,19.37
2018-05-26T06:27:43.661Z,15.65
2018-05-26T06:30:12.373Z,14.73
2018-05-26T06:32:44.331Z,15.88
2018-05-26T06:35:12.987Z,14.70
2018-05-26T06:37:42.019Z,17.70
2018-05-26T06:40:10.860Z,14.80
2018-05-26T06:42:40.618Z,15.27
2018-05-26T06:45:09.258Z,13.38
2018-05-26T06:47:38.106Z,14.57
2018-05-26T06:50:08.003Z,13.43
2018-05-26T06:52:42.194Z,14.68
2018-05-26T06:55:10.836Z,13.93
2018-05-26T06:57:41.228Z,16.15
2018-05-26T07:00:10.174Z,14.15
2018-05-26T07:02:46.473Z,15.15
2018-05-26T07:05:15.134Z,13.80
2018-05-26T07:07:46.594Z,14.70
2018-05-26T07:10:18.031Z,14.27
2018-05-26T07:12:46.735Z,15.27
2018-05-26T07:15:18.638Z,15.13
2018-05-26T07:17:49.446Z,16.33
2018-05-26T07:20:18.265Z,16.33
2018-05-26T07:22:46.941Z,13.50
2018-05-26T07:25:15.681Z,13.18
2018-05-26T07:27:49.645Z,14.38
2018-05-26T07:30:19.267Z,13.93
2018-05-26T07:32:47.883Z,13.55
2018-05-26T07:35:16.881Z,14.15
2018-05-26T07:37:46.351Z,13.35
2018-05-26T07:40:15.352Z,13.75
2018-05-26T07:42:45.361Z,16.12
2018-05-26T07:45:14.399Z,14.73
2018-05-26T07:47:43.070Z,14.48
2018-05-26T07:50:11.770Z,15.57
2018-05-26T07:52:40.423Z,14.75
2018-05-26T07:55:09.172Z,12.98
2018-05-26T07:57:37.810Z,13.60
2018-05-26T08:00:06.544Z,14.95
2018-05-26T08:02:35.165Z,13.32
2018-05-26T08:05:03.836Z,12.50
2018-05-26T08:07:32.498Z,11.85
2018-05-26T08:10:03.190Z,13.15
2018-05-26T08:12:32.032Z,11.90
2018-05-26T08:15:00.710Z,11.45
2018-05-26T08:17:29.775Z,16.83
2018-05-26T08:19:58.409Z,11.48
2018-05-26T08:22:27.034Z,11.68
2018-05-26T08:24:55.710Z,11.20
2018-05-26T08:27:24.333Z,9.95
2018-05-26T08:29:53.017Z,10.05
2018-05-26T08:32:22.523Z,10.93
2018-05-26T08:34:51.213Z,10.82
2018-05-26T08:37:19.857Z,15.82
2018-05-26T08:39:48.527Z,11.48
2018-05-26T08:42:17.172Z,10.63
2018-05-26T08:44:46.430Z,10.10
2018-05-26T08:47:15.047Z,11.10
2018-05-26T08:49:52.096Z,9.63
2018-05-26T08:52:21.127Z,10.63
2018-05-26T08:54:50.495Z,9.32
2018-05-26T08:57:20.993Z,9.05
2018-05-26T08:59:50.127Z,9.02
2018-05-26T09:02:19.270Z,9.40
2018-05-26T09:04:49.854Z,9.55
2018-05-26T09:07:19.067Z,9.48
2018-05-26T09:09:48.256Z,9.63
2018-05-26T09:12:17.235Z,8.70
2018-05-26T09:14:46.367Z,7.90
2018-05-26T09:17:15.356Z,7.30
2018-05-26T09:19:45.115Z,6.95
2018-05-26T09:22:15.767Z,7.85
2018-05-26T09:24:44.371Z,7.90
2018-05-26T09:27:13.552Z,6.00
2018-05-26T09:29:42.292Z,7.30
2018-05-26T09:32:12.069Z,7.53
2018-05-26T09:34:40.791Z,7.80
2018-05-26T09:37:10.874Z,7.37
2018-05-26T09:39:42.279Z,10.88
2018-05-26T09:42:10.912Z,8.07
2018-05-26T09:44:39.651Z,6.72
2018-05-26T09:47:08.454Z,9.27
2018-05-26T09:49:45.208Z,6.57
2018-05-26T09:52:54.040Z,6.82
2018-05-26T09:55:30.454Z,5.93
2018-05-26T09:58:01.239Z,5.60
2018-05-26T10:15:42.118Z,5.90
2018-05-26T10:18:10.745Z,6.47
2018-05-26T10:20:40.576Z,6.28
2018-05-26T10:23:09.226Z,8.43
2018-05-26T10:25:37.879Z,6.27
2018-05-26T10:28:11.167Z,5.75
2018-05-26T10:30:42.712Z,7.07
2018-05-26T10:33:11.442Z,7.95
2018-05-26T10:35:40.097Z,7.00
2018-05-26T10:38:09.813Z,6.97
2018-05-26T10:40:42.177Z,5.85
2018-05-26T10:43:11.407Z,6.47
2018-05-26T10:45:40.408Z,7.55
2018-05-26T10:50:56.608Z,5.10
2018-05-26T10:53:25.308Z,5.53
2018-05-26T10:55:54.007Z,5.65
2018-05-26T10:58:22.667Z,7.20
2018-05-26T11:00:52.424Z,5.85
2018-05-26T11:03:24.079Z,5.40
2018-05-26T11:05:52.694Z,6.07
2018-05-26T11:08:21.840Z,6.27
2018-05-26T11:10:55.721Z,8.18
2018-05-26T11:13:25.196Z,6.70
2018-05-26T11:15:54.064Z,8.25
2018-05-26T11:18:22.749Z,9.00
2018-05-26T11:23:42.351Z,5.05
2018-05-26T11:26:14.318Z,4.93
2018-05-26T11:28:42.987Z,5.45
2018-05-26T11:31:11.663Z,5.80
2018-05-26T11:33:40.259Z,6.75
2018-05-26T11:36:09.230Z,5.72
2018-05-26T11:38:40.857Z,8.20
2018-05-26T11:41:09.494Z,6.30
2018-05-26T11:43:38.198Z,5.32
2018-05-26T11:46:06.776Z,6.90
2018-05-26T11:48:35.831Z,4.97
2018-05-26T11:51:04.925Z,5.20
2018-05-26T11:53:33.573Z,4.97
2018-05-26T11:56:02.212Z,5.95
2018-05-26T11:58:31.273Z,4.65
2018-05-26T12:00:59.892Z,5.90
2018-05-26T12:03:31.509Z,5.93
2018-05-26T12:06:00.126Z,4.97
2018-05-26T12:08:28.772Z,5.93
2018-05-26T12:11:01.892Z,7.05
2018-05-26T12:13:30.580Z,8.38
2018-05-26T12:15:59.352Z,6.22
2018-05-26T12:18:27.987Z,6.05
2018-05-26T12:20:58.942Z,4.97
2018-05-26T12:23:27.603Z,8.88
2018-05-26T12:25:56.233Z,5.35
2018-05-26T12:28:24.872Z,5.60
2018-05-26T12:30:53.525Z,6.50
2018-05-26T12:33:22.148Z,6.68
2018-05-26T12:35:50.784Z,6.95
2018-05-26T12:38:19.407Z,9.05
2018-05-26T12:40:48.059Z,7.37
2018-05-26T12:43:16.663Z,5.10
2018-05-26T12:45:45.308Z,5.12
2018-05-26T12:48:13.926Z,6.10
2018-05-26T12:50:42.576Z,10.30
2018-05-26T12:53:11.272Z,4.72
2018-05-26T12:55:39.942Z,5.20
2018-05-26T12:58:08.553Z,7.55
2018-05-26T13:00:37.202Z,5.62
2018-05-26T13:03:05.852Z,6.20
2018-05-26T13:05:34.498Z,5.07
2018-05-26T13:08:03.100Z,4.40
2018-05-26T13:10:31.731Z,9.63
2018-05-26T13:13:00.334Z,6.00
2018-05-26T13:15:28.970Z,7.93
2018-05-26T13:17:57.580Z,5.95
2018-05-26T13:20:26.219Z,4.83
2018-05-26T13:22:54.819Z,6.03
2018-05-26T13:25:23.463Z,6.50
2018-05-26T13:27:52.067Z,5.62
2018-05-26T13:30:20.704Z,5.10
2018-05-26T13:32:49.311Z,4.50
2018-05-26T13:35:17.972Z,5.87
2018-05-26T13:37:46.566Z,4.55
2018-05-26T13:40:15.202Z,4.45
2018-05-26T13:42:43.816Z,4.18
2018-05-26T13:45:12.450Z,5.57
2018-05-26T13:47:41.059Z,6.65
2018-05-26T13:50:09.699Z,4.80
2018-05-26T13:52:38.322Z,3.90
2018-05-26T13:55:06.967Z,4.28
2018-05-26T13:57:35.575Z,6.00
2018-05-26T14:00:04.225Z,4.35
2018-05-26T14:02:32.839Z,4.20
2018-05-26T14:05:01.443Z,4.45
2018-05-26T14:07:30.080Z,5.03
2018-05-26T14:09:58.686Z,5.50
2018-05-26T14:12:27.342Z,4.93
2018-05-26T14:14:55.955Z,4.20
2018-05-26T14:17:24.596Z,7.12
2018-05-26T14:19:54.150Z,5.25
2018-05-26T14:22:22.779Z,4.93
2018-05-26T14:24:51.391Z,4.95
2018-05-26T14:27:20.028Z,5.65
2018-05-26T14:29:48.636Z,7.30
2018-05-26T14:32:19.302Z,7.07
2018-05-26T14:34:49.920Z,4.35
2018-05-26T14:37:18.553Z,5.37
2018-05-26T14:39:47.171Z,4.05
2018-05-26T14:42:16.244Z,7.18
2018-05-26T14:44:44.846Z,4.35
2018-05-26T14:47:13.480Z,6.05
2018-05-26T14:49:42.088Z,5.20
2018-05-26T14:52:10.721Z,3.83
2018-05-26T14:54:39.331Z,3.90
2018-05-26T14:57:07.969Z,3.83
2018-05-26T14:59:36.577Z,4.80
2018-05-26T15:02:05.214Z,3.90
2018-05-26T15:04:33.849Z,6.22
2018-05-26T15:07:02.483Z,4.45
2018-05-26T15:09:31.102Z,4.35
2018-05-26T15:11:59.904Z,4.22
2018-05-26T15:14:28.527Z,6.20
2018-05-26T15:16:57.183Z,6.22
2018-05-26T15:19:25.783Z,5.30
2018-05-26T15:21:54.417Z,4.05
2018-05-26T15:24:23.036Z,4.00
2018-05-26T15:26:51.681Z,5.35
2018-05-26T15:29:20.296Z,5.43
2018-05-26T15:31:48.942Z,6.18
2018-05-26T15:34:17.546Z,3.90
2018-05-26T15:36:46.160Z,6.93
2018-05-26T15:39:14.812Z,3.72
2018-05-26T15:41:43.415Z,4.55
2018-05-26T15:44:12.048Z,3.70
2018-05-26T15:46:40.656Z,4.05
2018-05-26T15:49:09.292Z,5.30
2018-05-26T15:51:37.928Z,5.10
2018-05-26T15:54:06.575Z,3.97
2018-05-26T15:56:35.173Z,3.72
2018-05-26T15:59:03.813Z,3.97
2018-05-26T16:01:32.410Z,4.53
2018-05-26T16:04:01.047Z,6.97
2018-05-26T16:06:29.707Z,9.10
2018-05-26T16:08:58.295Z,6.18
2018-05-26T16:11:26.904Z,4.53
2018-05-26T16:13:55.591Z,5.30
2018-05-26T16:16:24.211Z,4.07
2018-05-26T16:18:52.848Z,3.47
2018-05-26T16:21:21.456Z,3.90
2018-05-26T16:23:50.103Z,5.57
2018-05-26T16:26:18.757Z,3.92
2018-05-26T16:28:47.399Z,3.53
2018-05-26T16:31:16.009Z,4.97
2018-05-26T16:33:44.638Z,3.55
2018-05-26T16:36:13.243Z,3.60
2018-05-26T16:38:41.881Z,4.10
2018-05-26T16:41:10.498Z,3.85
2018-05-26T16:43:39.135Z,4.32
2018-05-26T16:46:07.757Z,3.70
2018-05-26T16:48:36.390Z,4.80
2018-05-26T16:51:04.999Z,3.42
2018-05-26T16:53:33.635Z,4.57
2018-05-26T16:56:02.253Z,3.83
2018-05-26T16:58:30.883Z,6.50
2018-05-26T17:00:59.503Z,4.55
2018-05-26T17:03:28.139Z,5.05
2018-05-26T17:05:56.756Z,4.03
2018-05-26T17:08:25.390Z,4.43
2018-05-26T17:10:54.136Z,5.15
2018-05-26T17:13:22.756Z,7.35
2018-05-26T17:15:51.392Z,4.40
2018-05-26T17:18:20.006Z,6.32
2018-05-26T17:20:48.638Z,8.93
2018-05-26T17:23:17.258Z,6.85
2018-05-26T17:25:45.918Z,5.60
2018-05-26T17:28:14.523Z,5.53
2018-05-26T17:30:43.175Z,3.83
2018-05-26T17:33:11.791Z,3.90
2018-05-26T17:35:40.450Z,3.58
2018-05-26T17:38:09.063Z,3.58
2018-05-26T17:40:37.699Z,5.15
2018-05-26T17:43:06.319Z,4.37
2018-05-26T17:45:34.974Z,4.10
2018-05-26T17:48:03.587Z,7.35
2018-05-26T17:50:32.223Z,4.30
2018-05-26T17:53:00.823Z,4.95
2018-05-26T17:55:30.457Z,3.53
2018-05-26T17:57:59.091Z,6.10
2018-05-26T18:00:27.735Z,4.03
2018-05-26T18:02:56.333Z,4.97
2018-05-26T18:05:25.012Z,6.85
2018-05-26T18:07:53.648Z,4.93
2018-05-26T18:10:22.296Z,7.32
2018-05-26T18:12:50.916Z,4.57
2018-05-26T18:15:19.560Z,6.07
2018-05-26T18:17:48.169Z,5.35
2018-05-26T18:20:16.836Z,5.15
2018-05-26T18:22:45.832Z,5.87
2018-05-26T18:25:14.472Z,4.72
2018-05-26T18:27:43.104Z,5.80
2018-05-26T18:30:11.744Z,5.20
2018-05-26T18:32:40.358Z,4.93
2018-05-26T18:35:08.994Z,4.53
2018-05-26T18:37:39.733Z,9.00
2018-05-26T18:40:10.699Z,6.43
2018-05-26T18:42:41.336Z,6.03
2018-05-26T18:45:11.244Z,5.15
2018-05-26T18:47:40.032Z,4.70
2018-05-26T18:50:08.660Z,4.78
2018-05-26T18:52:37.318Z,7.75
2018-05-26T18:55:08.312Z,7.10
2018-05-26T18:57:36.955Z,7.32
2018-05-26T19:00:05.588Z,5.10
2018-05-26T19:02:34.241Z,7.30
2018-05-26T19:05:02.887Z,5.37
2018-05-26T19:07:31.532Z,5.30
2018-05-26T19:10:00.154Z,5.22
2018-05-26T19:12:28.936Z,6.57
2018-05-26T19:14:57.576Z,5.65
2018-05-26T19:17:26.231Z,5.30
2018-05-26T19:19:54.871Z,5.57
2018-05-26T19:22:23.525Z,5.00
2018-05-26T19:24:54.072Z,4.97
2018-05-26T19:27:22.730Z,7.03
2018-05-26T19:29:53.713Z,5.03
2018-05-26T19:32:22.395Z,5.05
2018-05-26T19:34:51.019Z,6.07
2018-05-26T19:37:19.656Z,5.07
2018-05-26T19:39:48.302Z,5.53
2018-05-26T19:42:16.960Z,6.35
2018-05-26T19:44:45.607Z,6.68
2018-05-26T19:47:14.293Z,7.32
2018-05-26T19:49:42.903Z,5.32
2018-05-26T19:52:11.556Z,5.47
2018-05-26T19:54:40.176Z,6.05
2018-05-26T19:57:08.896Z,5.10
2018-05-26T19:59:40.359Z,8.15
2018-05-26T20:02:11.081Z,4.72
2018-05-26T20:04:42.220Z,6.43
2018-05-26T20:07:12.960Z,4.87
2018-05-26T20:09:41.637Z,9.13
2018-05-26T20:12:10.287Z,5.65
2018-05-26T20:14:39.834Z,5.32
2018-05-26T20:17:08.507Z,6.57
2018-05-26T20:19:39.453Z,5.45
2018-05-26T20:22:08.088Z,6.07
2018-05-26T20:27:26.524Z,5.45
2018-05-26T20:29:55.188Z,4.82
2018-05-26T20:32:23.851Z,5.12
2018-05-26T20:35:00.232Z,5.10
2018-05-26T20:37:36.405Z,7.20
2018-05-26T20:40:05.522Z,6.55
2018-05-26T20:42:51.632Z,5.20
2018-05-26T20:45:22.723Z,5.62
2018-05-26T20:47:53.719Z,5.55
2018-05-26T20:50:23.100Z,5.68
2018-05-26T20:52:53.602Z,5.72
2018-05-26T20:58:09.892Z,6.82
2018-05-26T21:00:41.039Z,5.55
2018-05-26T21:03:10.065Z,6.57
2018-05-26T21:05:39.799Z,8.82
2018-05-26T21:08:16.366Z,7.50
2018-05-26T21:10:45.050Z,6.10
2018-05-26T21:13:21.725Z,6.72
2018-05-26T21:15:50.361Z,6.35
2018-05-26T21:18:19.031Z,6.37
2018-05-26T21:20:49.649Z,5.85
2018-05-26T21:23:18.700Z,8.00
2018-05-26T21:25:47.723Z,8.90
2018-05-26T21:28:16.416Z,7.15
2018-05-26T21:30:45.976Z,5.78
2018-05-26T21:33:15.207Z,5.80
2018-05-26T21:35:46.060Z,6.03
2018-05-26T21:38:18.075Z,6.90
2018-05-26T21:40:46.753Z,7.95
2018-05-26T21:43:15.992Z,6.75
2018-05-26T21:45:45.028Z,6.70
2018-05-26T21:48:13.648Z,6.35
2018-05-26T21:50:42.338Z,5.78
2018-05-26T21:53:10.952Z,6.37
2018-05-26T21:55:42.829Z,7.72
2018-05-26T21:58:16.145Z,5.87
2018-05-26T22:00:49.557Z,6.90
2018-05-26T22:03:20.550Z,10.30
2018-05-26T22:05:49.275Z,6.62
2018-05-26T22:08:17.866Z,6.55
2018-05-26T22:10:48.665Z,6.55
2018-05-26T22:13:17.303Z,7.43
2018-05-26T22:15:45.975Z,7.12
2018-05-26T22:18:14.648Z,7.78
2018-05-26T22:20:43.324Z,6.78
2018-05-26T22:23:11.948Z,8.50
2018-05-26T22:25:42.290Z,7.10
2018-05-26T22:28:12.279Z,8.27
2018-05-26T22:30:44.434Z,8.98
2018-05-26T22:33:14.801Z,7.18
2018-05-26T22:35:43.912Z,7.43
2018-05-26T22:38:14.919Z,8.02
2018-05-26T22:40:45.063Z,7.22
2018-05-26T22:43:18.677Z,7.28
2018-05-26T22:45:49.442Z,8.63
2018-05-26T22:48:19.956Z,8.48
2018-05-26T22:50:56.101Z,14.48
2018-05-26T22:53:25.841Z,9.65
2018-05-26T22:55:56.768Z,8.98
2018-05-26T22:58:30.232Z,9.77
2018-05-26T23:01:02.760Z,10.93
2018-05-26T23:03:40.167Z,9.67
2018-05-26T23:06:09.676Z,10.15
2018-05-26T23:08:38.752Z,10.33
2018-05-26T23:11:07.906Z,7.68
2018-05-26T23:13:37.040Z,9.70
2018-05-26T23:16:06.214Z,7.23
2018-05-26T23:18:35.401Z,6.68
2018-05-26T23:21:04.430Z,7.83
2018-05-26T23:23:33.410Z,7.30
2018-05-26T23:26:02.199Z,7.50
2018-05-26T23:28:39.887Z,7.72
2018-05-26T23:31:08.824Z,7.40
2018-05-26T23:33:40.546Z,8.43
2018-05-26T23:36:10.568Z,7.07
2018-05-26T23:38:40.018Z,7.20
2018-05-26T23:41:08.965Z,7.13
2018-05-26T23:43:37.902Z,6.97
2018-05-26T23:46:09.417Z,8.25
2018-05-26T23:48:39.571Z,7.93
2018-05-26T23:51:08.755Z,7.85
2018-05-26T23:53:37.597Z,7.90
2018-05-26T23:56:06.774Z,8.00
2018-05-26T23:58:35.274Z,7.03
